createdAt,value
2019-01-15T00:01:19.544Z,94.34
2019-01-15T00:03:48.323Z,94.49
2019-01-15T00:06:17.093Z,94.90
2019-01-15T00:08:45.780Z,95.26
2019-01-15T00:11:14.547Z,95.01
2019-01-15T00:13:43.368Z,94.90
2019-01-15T00:16:12.132Z,95.01
2019-01-15T00:18:40.823Z,96.69
2019-01-15T00:21:09.528Z,96.69
2019-01-15T00:23:38.284Z,96.19
2019-01-15T00:26:07.060Z,95.89
2019-01-15T00:28:35.757Z,95.85
2019-01-15T00:31:04.521Z,96.04
2019-01-15T00:33:33.598Z,95.94
2019-01-15T00:36:03.339Z,96.82
2019-01-15T00:38:32.483Z,96.60
2019-01-15T00:41:01.174Z,96.30
2019-01-15T00:43:30.001Z,96.38
2019-01-15T00:45:58.825Z,96.47
2019-01-15T00:48:27.507Z,96.37
2019-01-15T00:50:56.440Z,96.33
2019-01-15T00:53:25.212Z,96.21
2019-01-15T00:55:54.014Z,96.21
2019-01-15T00:58:22.745Z,96.21
2019-01-15T01:00:51.508Z,95.70
2019-01-15T01:03:20.600Z,95.76
2019-01-15T01:05:49.408Z,96.28
2019-01-15T01:08:18.447Z,96.28
2019-01-15T01:10:47.422Z,96.22
2019-01-15T01:13:16.103Z,96.19
2019-01-15T01:15:44.792Z,96.13
2019-01-15T01:18:13.494Z,96.26
2019-01-15T01:20:42.186Z,96.18
2019-01-15T01:23:10.972Z,96.06
2019-01-15T01:25:39.669Z,95.58
2019-01-15T01:28:08.445Z,95.79
2019-01-15T01:30:37.208Z,94.86
2019-01-15T01:33:06.265Z,95.51
2019-01-15T01:35:35.021Z,95.96
2019-01-15T01:38:03.800Z,96.24
2019-01-15T01:40:32.508Z,96.50
2019-01-15T01:43:01.199Z,96.50
2019-01-15T01:45:29.907Z,96.90
2019-01-15T01:47:58.604Z,96.92
2019-01-15T01:50:27.650Z,97.06
2019-01-15T01:52:56.427Z,97.06
2019-01-15T01:55:25.257Z,97.05
2019-01-15T01:57:54.343Z,97.22
2019-01-15T02:00:23.126Z,97.13
2019-01-15T02:02:51.801Z,97.33
2019-01-15T02:05:20.569Z,97.45
2019-01-15T02:07:49.427Z,97.26
2019-01-15T02:10:19.788Z,97.27
2019-01-15T02:12:49.160Z,97.27
2019-01-15T02:15:20.431Z,96.65
2019-01-15T02:17:49.196Z,96.77
2019-01-15T02:20:19.652Z,96.34
2019-01-15T02:22:48.560Z,96.00
2019-01-15T02:25:17.497Z,95.81
2019-01-15T02:27:48.767Z,95.54
2019-01-15T02:30:19.588Z,95.20
2019-01-15T02:32:48.344Z,95.15
2019-01-15T02:35:17.129Z,95.78
2019-01-15T02:37:45.903Z,96.45
2019-01-15T02:40:14.794Z,96.31
2019-01-15T02:42:46.896Z,96.37
2019-01-15T02:45:15.410Z,95.96
2019-01-15T02:47:44.331Z,95.89
2019-01-15T02:50:15.006Z,95.89
2019-01-15T02:52:44.125Z,95.96
2019-01-15T02:55:13.833Z,95.91
2019-01-15T02:57:42.609Z,95.84
2019-01-15T03:00:17.370Z,95.86
2019-01-15T03:02:46.153Z,95.80
2019-01-15T03:05:15.231Z,95.99
2019-01-15T03:07:43.984Z,96.06
2019-01-15T03:10:14.323Z,95.95
2019-01-15T03:12:45.116Z,96.04
2019-01-15T03:15:13.917Z,96.05
2019-01-15T03:17:42.730Z,96.05
2019-01-15T03:20:11.783Z,96.28
2019-01-15T03:22:40.541Z,96.34
2019-01-15T03:25:09.644Z,96.16
2019-01-15T03:27:38.452Z,96.23
2019-01-15T03:30:09.222Z,96.11
2019-01-15T03:32:37.895Z,96.03
2019-01-15T03:35:06.875Z,95.78
2019-01-15T03:37:35.656Z,95.96
2019-01-15T03:40:06.129Z,95.76
2019-01-15T03:42:34.834Z,95.44
2019-01-15T03:45:05.124Z,95.31
2019-01-15T03:47:33.997Z,94.88
2019-01-15T03:50:03.034Z,95.05
2019-01-15T03:52:31.875Z,95.17
2019-01-15T03:55:00.560Z,95.01
2019-01-15T03:57:29.251Z,94.34
2019-01-15T03:59:58.007Z,94.86
2019-01-15T04:02:26.817Z,95.32
2019-01-15T04:04:55.534Z,95.50
2019-01-15T04:07:24.527Z,95.62
2019-01-15T04:09:53.426Z,96.12
2019-01-15T04:12:22.571Z,95.83
2019-01-15T04:14:51.278Z,96.07
2019-01-15T04:17:19.971Z,96.16
2019-01-15T04:19:48.679Z,96.46
2019-01-15T04:22:17.790Z,96.38
2019-01-15T04:24:46.469Z,95.91
2019-01-15T04:27:15.311Z,96.14
2019-01-15T04:29:44.074Z,95.99
2019-01-15T04:32:12.840Z,95.99
2019-01-15T04:34:41.535Z,96.59
2019-01-15T04:37:10.281Z,96.59
2019-01-15T04:39:39.081Z,96.42
2019-01-15T04:42:07.877Z,96.48
2019-01-15T04:44:36.563Z,96.60
2019-01-15T04:47:05.398Z,96.60
2019-01-15T04:49:34.207Z,96.88
2019-01-15T04:52:03.033Z,97.07
2019-01-15T04:54:32.127Z,97.07
2019-01-15T04:57:01.262Z,97.00
2019-01-15T04:59:30.724Z,97.42
2019-01-15T05:01:59.567Z,97.44
2019-01-15T05:04:28.330Z,97.71
2019-01-15T05:06:57.085Z,98.00
2019-01-15T05:09:25.765Z,97.54
2019-01-15T05:11:54.868Z,97.50
2019-01-15T05:14:23.622Z,97.75
2019-01-15T05:16:52.888Z,97.99
2019-01-15T05:19:21.651Z,97.99
2019-01-15T05:21:50.349Z,98.02
2019-01-15T05:24:19.040Z,97.76
2019-01-15T05:26:47.732Z,98.10
2019-01-15T05:29:16.512Z,98.10
2019-01-15T05:31:45.359Z,98.33
2019-01-15T05:34:14.046Z,98.15
2019-01-15T05:36:42.736Z,98.34
2019-01-15T05:39:11.439Z,98.39
2019-01-15T05:41:40.154Z,98.25
2019-01-15T05:44:10.163Z,98.23
2019-01-15T05:46:38.947Z,98.02
2019-01-15T05:49:07.711Z,98.03
2019-01-15T05:51:39.013Z,97.91
2019-01-15T05:54:07.850Z,98.00
2019-01-15T05:56:36.575Z,98.11
2019-01-15T05:59:05.447Z,97.80
2019-01-15T06:01:36.258Z,97.65
2019-01-15T06:04:05.232Z,97.23
2019-01-15T06:06:34.040Z,96.85
2019-01-15T06:09:03.053Z,96.74
2019-01-15T06:11:32.047Z,97.07
2019-01-15T06:14:01.668Z,97.64
2019-01-15T06:16:30.534Z,97.77
2019-01-15T06:18:59.206Z,97.46
2019-01-15T06:21:28.051Z,97.28
2019-01-15T06:23:56.744Z,97.39
2019-01-15T06:26:25.535Z,97.48
2019-01-15T06:28:54.400Z,97.43
2019-01-15T06:31:23.169Z,97.40
2019-01-15T06:33:51.916Z,97.15
2019-01-15T06:36:20.769Z,97.16
2019-01-15T06:38:49.477Z,97.29
2019-01-15T06:41:18.319Z,97.10
2019-01-15T06:43:50.101Z,96.84
2019-01-15T06:46:17.507Z,96.71
2019-01-15T06:48:46.271Z,96.39
2019-01-15T06:51:15.843Z,95.80
2019-01-15T06:53:44.696Z,95.78
2019-01-15T06:56:13.783Z,95.57
2019-01-15T06:58:42.774Z,95.49
2019-01-15T07:01:11.544Z,95.70
2019-01-15T07:03:40.393Z,95.38
2019-01-15T07:06:09.189Z,95.57
2019-01-15T07:08:37.869Z,95.64
2019-01-15T07:11:06.655Z,95.82
2019-01-15T07:13:35.419Z,95.79
2019-01-15T07:16:04.848Z,95.71
2019-01-15T07:18:33.612Z,95.61
2019-01-15T07:21:02.421Z,95.25
2019-01-15T07:23:31.251Z,95.25
2019-01-15T07:25:59.940Z,95.10
2019-01-15T07:28:28.632Z,94.90
2019-01-15T07:30:59.660Z,94.65
2019-01-15T07:33:30.116Z,94.36
2019-01-15T07:35:58.912Z,94.40
2019-01-15T07:38:27.693Z,94.25
2019-01-15T07:40:56.984Z,93.94
2019-01-15T07:43:25.753Z,93.87
2019-01-15T07:45:54.518Z,94.00
2019-01-15T07:48:23.287Z,93.73
2019-01-15T07:50:52.067Z,93.48
2019-01-15T07:53:20.885Z,93.61
2019-01-15T07:55:49.583Z,93.88
2019-01-15T07:58:18.299Z,93.65
2019-01-15T08:00:47.131Z,93.44
2019-01-15T08:03:15.884Z,93.21
2019-01-15T08:05:45.197Z,93.41
2019-01-15T08:08:14.407Z,93.15
2019-01-15T08:10:43.170Z,93.26
2019-01-15T08:13:11.922Z,92.90
2019-01-15T08:15:40.598Z,92.85
2019-01-15T08:18:09.480Z,92.69
2019-01-15T08:20:38.712Z,92.46
2019-01-15T08:23:07.472Z,92.13
2019-01-15T08:25:36.261Z,92.14
2019-01-15T08:28:05.420Z,92.16
2019-01-15T08:30:37.822Z,92.13
2019-01-15T08:33:06.860Z,92.38
2019-01-15T08:35:35.745Z,92.07
2019-01-15T08:38:05.220Z,91.61
2019-01-15T08:40:34.096Z,91.96
2019-01-15T08:43:02.888Z,91.73
2019-01-15T08:45:32.026Z,91.91
2019-01-15T08:48:14.235Z,91.59
2019-01-15T08:50:43.073Z,91.33
2019-01-15T08:53:12.915Z,91.41
2019-01-15T08:55:41.835Z,91.86
2019-01-15T08:58:10.672Z,91.11
2019-01-15T09:00:39.397Z,91.44
2019-01-15T09:03:08.161Z,91.27
2019-01-15T09:05:36.912Z,90.61
2019-01-15T09:08:05.689Z,90.82
2019-01-15T09:10:34.886Z,90.30
2019-01-15T09:13:04.788Z,90.33
2019-01-15T09:15:33.564Z,90.02
2019-01-15T09:18:02.738Z,90.29
2019-01-15T09:20:31.512Z,90.06
2019-01-15T09:23:00.387Z,89.96
2019-01-15T09:25:29.711Z,90.03
2019-01-15T09:27:58.477Z,90.04
2019-01-15T09:30:27.279Z,89.68
2019-01-15T09:32:56.599Z,89.60
2019-01-15T09:35:25.363Z,89.84
2019-01-15T09:37:54.281Z,89.38
2019-01-15T09:40:24.087Z,89.66
2019-01-15T09:42:52.851Z,89.61
2019-01-15T09:45:23.585Z,89.06
2019-01-15T09:48:00.100Z,89.35
2019-01-15T09:50:28.793Z,89.20
2019-01-15T09:52:57.801Z,89.12
2019-01-15T09:55:26.647Z,88.72
2019-01-15T09:57:55.353Z,88.35
2019-01-15T10:00:24.229Z,88.15
2019-01-15T10:02:53.151Z,88.55
2019-01-15T10:05:22.200Z,88.75
2019-01-15T10:07:50.968Z,87.98
2019-01-15T10:10:19.744Z,88.00
2019-01-15T10:12:48.535Z,87.84
2019-01-15T10:15:17.536Z,88.07
2019-01-15T10:17:46.382Z,87.69
2019-01-15T10:20:16.227Z,87.83
2019-01-15T10:22:45.177Z,87.90
2019-01-15T10:25:17.430Z,87.65
2019-01-15T10:27:47.363Z,86.78
2019-01-15T10:30:32.439Z,86.58
2019-01-15T10:33:18.493Z,86.03
2019-01-15T10:35:55.656Z,86.98
2019-01-15T10:38:25.974Z,86.43
2019-01-15T10:40:56.860Z,85.73
2019-01-15T10:43:25.927Z,85.37
2019-01-15T10:45:54.775Z,85.85
2019-01-15T10:48:23.563Z,85.24
2019-01-15T10:50:52.732Z,85.46
2019-01-15T10:53:21.549Z,84.68
2019-01-15T10:55:50.318Z,84.68
2019-01-15T10:58:19.159Z,84.71
2019-01-15T11:00:52.202Z,83.87
2019-01-15T11:03:20.964Z,84.04
2019-01-15T11:05:49.800Z,85.28
2019-01-15T11:08:18.737Z,83.55
2019-01-15T11:10:47.511Z,83.17
2019-01-15T11:13:16.359Z,83.45
2019-01-15T11:15:45.051Z,83.70
2019-01-15T11:18:13.832Z,84.50
2019-01-15T11:20:42.623Z,84.21
2019-01-15T11:23:11.373Z,84.09
2019-01-15T11:25:40.172Z,84.39
2019-01-15T11:28:08.939Z,84.50
2019-01-15T11:30:37.687Z,84.30
2019-01-15T11:33:06.475Z,84.59
2019-01-15T11:35:35.236Z,84.88
2019-01-15T11:38:05.035Z,84.81
2019-01-15T11:40:34.112Z,85.35
2019-01-15T11:43:02.809Z,84.63
2019-01-15T11:45:31.578Z,85.06
2019-01-15T11:48:00.627Z,85.05
2019-01-15T11:50:29.435Z,84.58
2019-01-15T11:52:58.198Z,84.92
2019-01-15T11:55:26.964Z,84.67
2019-01-15T11:57:55.732Z,84.57
2019-01-15T12:00:36.812Z,84.54
2019-01-15T12:03:27.975Z,84.34
2019-01-15T12:06:15.759Z,83.38
2019-01-15T12:09:09.868Z,83.68
2019-01-15T12:11:56.816Z,83.17
2019-01-15T12:14:53.768Z,82.47
2019-01-15T12:17:40.408Z,82.71
2019-01-15T12:20:36.387Z,82.27
2019-01-15T12:23:24.451Z,81.94
2019-01-15T12:26:10.661Z,82.57
2019-01-15T12:28:58.487Z,81.42
2019-01-15T12:31:52.606Z,81.31
2019-01-15T12:34:55.413Z,80.95
2019-01-15T12:37:41.918Z,80.73
2019-01-15T12:40:41.891Z,81.05
2019-01-15T12:43:28.321Z,81.06
2019-01-15T12:46:15.010Z,80.54
2019-01-15T12:49:05.896Z,81.17
2019-01-15T12:51:54.272Z,80.22
2019-01-15T12:54:42.392Z,80.04
2019-01-15T12:57:20.428Z,80.38
2019-01-15T13:00:07.541Z,81.73
2019-01-15T13:02:54.422Z,80.56
2019-01-15T13:05:36.384Z,80.88
2019-01-15T13:08:23.263Z,81.44
2019-01-15T13:11:09.668Z,81.37
2019-01-15T13:14:06.448Z,80.90
2019-01-15T13:16:48.824Z,80.42
2019-01-15T13:19:51.607Z,80.82
2019-01-15T13:22:48.676Z,80.06
2019-01-15T13:25:48.598Z,81.21
2019-01-15T13:28:52.623Z,80.90
2019-01-15T13:31:40.400Z,81.29
2019-01-15T13:34:19.559Z,81.02
2019-01-15T13:37:06.259Z,80.85
2019-01-15T13:39:52.659Z,80.43
2019-01-15T13:42:43.223Z,80.35
2019-01-15T13:45:22.505Z,80.23
2019-01-15T13:48:09.423Z,79.97
2019-01-15T13:51:12.680Z,80.99
2019-01-15T13:54:12.875Z,80.39
2019-01-15T13:57:06.413Z,80.37
2019-01-15T13:59:46.740Z,80.76
2019-01-15T14:02:34.516Z,81.21
2019-01-15T14:05:34.135Z,80.76
2019-01-15T14:08:16.620Z,80.94
2019-01-15T14:11:13.588Z,81.11
2019-01-15T14:14:09.071Z,80.54
2019-01-15T14:17:06.156Z,81.02
2019-01-15T14:19:52.600Z,81.54
2019-01-15T14:22:44.544Z,81.89
2019-01-15T14:25:44.612Z,81.56
2019-01-15T14:28:33.530Z,81.75
2019-01-15T14:31:24.539Z,81.90
2019-01-15T14:34:12.620Z,81.89
2019-01-15T14:37:00.612Z,82.18
2019-01-15T14:39:43.745Z,82.19
2019-01-15T14:42:35.682Z,82.53
2019-01-15T14:45:22.673Z,82.70
2019-01-15T14:48:13.695Z,82.64
2019-01-15T14:51:09.157Z,83.27
2019-01-15T14:53:52.222Z,83.04
2019-01-15T14:56:38.927Z,83.42
2019-01-15T14:59:25.723Z,83.38
2019-01-15T15:02:12.025Z,84.28
2019-01-15T15:05:02.826Z,84.29
2019-01-15T15:07:49.224Z,84.15
2019-01-15T15:10:42.104Z,84.31
2019-01-15T15:13:35.749Z,85.19
2019-01-15T15:16:26.370Z,84.72
2019-01-15T15:19:14.147Z,85.25
2019-01-15T15:22:00.876Z,85.72
2019-01-15T15:24:47.430Z,85.38
2019-01-15T15:27:35.222Z,85.85
2019-01-15T15:30:22.504Z,86.00
2019-01-15T15:33:09.127Z,86.09
2019-01-15T15:35:56.619Z,86.61
2019-01-15T15:38:50.959Z,86.74
2019-01-15T15:41:29.920Z,86.70
2019-01-15T15:44:32.766Z,86.80
2019-01-15T15:47:32.662Z,87.01
2019-01-15T15:50:20.358Z,87.09
2019-01-15T15:53:20.488Z,87.41
2019-01-15T15:56:00.344Z,87.84
2019-01-15T15:58:56.876Z,86.76
2019-01-15T16:01:50.917Z,86.95
2019-01-15T16:04:41.759Z,86.39
2019-01-15T16:07:28.404Z,86.95
2019-01-15T16:10:21.916Z,86.20
2019-01-15T16:13:13.453Z,86.59
2019-01-15T16:16:10.415Z,86.42
2019-01-15T16:18:57.184Z,86.18
2019-01-15T16:21:53.796Z,85.59
2019-01-15T16:24:33.245Z,84.93
2019-01-15T16:27:19.651Z,84.44
2019-01-15T16:30:06.203Z,84.93
2019-01-15T16:32:53.976Z,84.55
2019-01-15T16:35:47.801Z,83.22
2019-01-15T16:38:34.489Z,83.25
2019-01-15T16:41:24.072Z,83.55
2019-01-15T16:44:10.811Z,82.98
2019-01-15T16:46:50.243Z,82.88
2019-01-15T16:49:30.951Z,83.19
2019-01-15T16:52:17.338Z,82.36
2019-01-15T16:55:11.607Z,82.70
2019-01-15T16:58:05.001Z,82.79
2019-01-15T17:00:58.691Z,82.00
2019-01-15T17:03:39.489Z,82.43
2019-01-15T17:06:26.403Z,82.90
2019-01-15T17:09:11.056Z,83.87
2019-01-15T17:11:57.304Z,84.22
2019-01-15T17:14:43.295Z,85.06
2019-01-15T17:17:27.569Z,85.44
2019-01-15T17:20:15.324Z,85.74
2019-01-15T17:22:57.511Z,86.13
2019-01-15T17:25:52.861Z,86.36
2019-01-15T17:28:40.968Z,86.63
2019-01-15T17:31:32.663Z,86.88
2019-01-15T17:34:19.417Z,87.46
2019-01-15T17:37:12.779Z,87.16
2019-01-15T17:39:54.030Z,86.99
2019-01-15T17:42:44.720Z,87.13
2019-01-15T17:45:26.117Z,86.91
2019-01-15T17:48:19.959Z,87.23
2019-01-15T17:51:15.714Z,87.43
2019-01-15T17:53:56.387Z,87.14
2019-01-15T17:56:38.524Z,87.22
2019-01-15T17:59:25.306Z,87.32
2019-01-15T18:02:19.276Z,87.04
2019-01-15T18:05:09.765Z,87.10
2019-01-15T18:08:09.165Z,87.16
2019-01-15T18:11:12.381Z,87.27
2019-01-15T18:14:05.006Z,87.08
2019-01-15T18:16:51.535Z,87.38
2019-01-15T18:19:35.367Z,87.38
2019-01-15T18:22:32.298Z,87.55
2019-01-15T18:25:19.133Z,87.32
2019-01-15T18:28:24.928Z,87.83
2019-01-15T18:31:09.905Z,87.99
2019-01-15T18:33:53.968Z,88.04
2019-01-15T18:36:41.658Z,88.50
2019-01-15T18:39:37.153Z,88.59
2019-01-15T18:42:29.778Z,88.69
2019-01-15T18:45:16.224Z,88.66
2019-01-15T18:48:13.259Z,88.62
2019-01-15T18:51:00.955Z,88.76
2019-01-15T18:53:49.213Z,89.03
2019-01-15T18:56:40.695Z,88.49
2019-01-15T18:59:31.410Z,88.54
2019-01-15T19:02:18.787Z,88.79
2019-01-15T19:05:11.503Z,89.29
2019-01-15T19:08:01.456Z,89.59
2019-01-15T19:10:47.059Z,89.84
2019-01-15T19:13:37.938Z,89.82
2019-01-15T19:16:26.771Z,89.82
2019-01-15T19:19:33.599Z,89.91
2019-01-15T19:22:08.635Z,89.91
2019-01-15T19:25:02.391Z,89.81
2019-01-15T19:27:43.184Z,89.74
2019-01-15T19:30:47.877Z,89.78
2019-01-15T19:33:41.779Z,90.11
2019-01-15T19:36:28.257Z,90.06
2019-01-15T19:39:19.115Z,89.78
2019-01-15T19:42:06.156Z,90.21
2019-01-15T19:44:57.025Z,90.24
2019-01-15T19:47:48.541Z,90.20
2019-01-15T19:50:51.772Z,90.11
2019-01-15T19:53:38.255Z,90.35
2019-01-15T19:56:28.827Z,90.25
2019-01-15T19:59:15.286Z,90.19
2019-01-15T20:02:02.047Z,90.46
2019-01-15T20:04:48.870Z,90.53
2019-01-15T20:07:26.860Z,90.30
2019-01-15T20:10:13.223Z,90.21
2019-01-15T20:13:03.735Z,90.50
2019-01-15T20:15:50.364Z,90.30
2019-01-15T20:18:36.887Z,90.25
2019-01-15T20:21:23.632Z,90.34
2019-01-15T20:24:29.734Z,90.63
2019-01-15T20:27:23.235Z,90.22
2019-01-15T20:30:10.125Z,90.87
2019-01-15T20:32:56.700Z,91.04
2019-01-15T20:35:46.128Z,91.30
2019-01-15T20:38:43.227Z,90.84
2019-01-15T20:41:36.807Z,90.53
2019-01-15T20:44:21.497Z,90.20
2019-01-15T20:47:11.863Z,90.50
2019-01-15T20:50:05.455Z,90.31
2019-01-15T20:52:53.145Z,90.60
2019-01-15T20:55:46.945Z,90.68
2019-01-15T20:58:44.621Z,90.77
2019-01-15T21:01:34.871Z,90.65
2019-01-15T21:04:22.819Z,90.95
2019-01-15T21:07:03.203Z,90.82
2019-01-15T21:09:59.971Z,90.89
2019-01-15T21:12:41.420Z,90.83
2019-01-15T21:15:29.597Z,90.77
2019-01-15T21:18:11.671Z,89.76
2019-01-15T21:21:05.527Z,89.79
2019-01-15T21:23:51.956Z,89.52
2019-01-15T21:26:36.391Z,89.53
2019-01-15T21:29:30.443Z,88.92
2019-01-15T21:32:33.819Z,88.97
2019-01-15T21:35:24.552Z,89.06
2019-01-15T21:38:24.633Z,88.97
2019-01-15T21:41:07.028Z,89.00
2019-01-15T21:43:54.719Z,88.81
2019-01-15T21:46:45.347Z,88.61
2019-01-15T21:49:31.729Z,88.40
2019-01-15T21:52:14.043Z,88.18
2019-01-15T21:55:09.922Z,88.19
2019-01-15T21:58:09.600Z,88.21
2019-01-15T22:00:57.379Z,87.69
2019-01-15T22:03:52.444Z,87.91
2019-01-15T22:06:40.385Z,87.50
2019-01-15T22:09:34.431Z,86.93
2019-01-15T22:12:28.390Z,87.12
2019-01-15T22:15:34.608Z,86.99
2019-01-15T22:18:28.521Z,86.77
2019-01-15T22:21:25.388Z,86.93
2019-01-15T22:24:11.075Z,86.58
2019-01-15T22:26:58.011Z,86.87
2019-01-15T22:30:01.841Z,85.96
2019-01-15T22:32:41.852Z,85.68
2019-01-15T22:35:28.351Z,84.98
2019-01-15T22:38:09.645Z,85.66
2019-01-15T22:41:06.160Z,85.52
2019-01-15T22:43:40.996Z,85.46
2019-01-15T22:46:26.475Z,85.18
2019-01-15T22:49:12.876Z,85.69
2019-01-15T22:51:50.487Z,84.69
2019-01-15T22:54:38.279Z,85.10
2019-01-15T22:57:29.172Z,84.99
2019-01-15T23:00:20.057Z,84.86
2019-01-15T23:03:06.352Z,84.94
2019-01-15T23:05:53.041Z,84.48
2019-01-15T23:08:43.013Z,84.33
2019-01-15T23:11:36.876Z,84.56
2019-01-15T23:14:17.106Z,84.96
2019-01-15T23:16:56.239Z,84.80
2019-01-15T23:19:42.933Z,85.12
2019-01-15T23:22:33.875Z,84.67
2019-01-15T23:25:33.750Z,84.46
2019-01-15T23:28:17.200Z,84.90
2019-01-15T23:31:04.996Z,83.96
2019-01-15T23:33:53.172Z,83.68
2019-01-15T23:36:47.865Z,83.67
2019-01-15T23:39:35.572Z,84.20
2019-01-15T23:42:14.329Z,84.54
2019-01-15T23:45:08.177Z,83.94
2019-01-15T23:47:46.216Z,83.38
2019-01-15T23:50:33.268Z,83.60
2019-01-15T23:53:30.762Z,83.12
2019-01-15T23:56:21.303Z,83.17
2019-01-15T23:59:08.195Z,83.25
